Date,TemperatureHighF,TemperatureAvgF,TemperatureLowF,DewpointHighF,DewpointAvgF,DewpointLowF,HumidityHigh,HumidityAvg,HumidityLow,PressureMaxIn,PressureMinIn,WindSpeedMaxMPH,WindSpeedAvgMPH,GustSpeedMaxMPH,PrecipitationSumIn
2014-1-1,13.6,11.1,9.4,12.4,9.5,8.0,95,93,90,31.27,31.13,7,1,13,0.11
2014-1-2,12.2,9.4,0.5,10.8,7.3,-2.0,95,91,85,31.28,31.04,10,3,20,1.54
2014-1-3,14.3,6.2,-4.8,8.3,1.0,-7.0,92,79,63,31.39,30.94,10,3,16,0.00
2014-1-4,30.8,23.7,13.4,27.9,18.9,8.4,99,82,69,30.94,30.73,10,4,15,0.09
2014-1-5,28.1,24.4,15.6,28.0,24.0,14.7,100,99,96,30.85,30.61,12,1,15,0.32
2014-1-6,15.5,1.5,-10.5,14.3,-0.6,-13.1,96,91,87,31.05,30.62,7,2,16,0.14
2014-1-7,4.1,-3.7,-9.0,0.8,-6.8,-11.6,89,86,82,31.28,31.04,4,2,9,0.00
2014-1-8,18.8,7.8,-0.9,14.9,5.4,-2.9,95,90,80,31.43,31.26,4,0,7,0.00
2014-1-9,21.5,13.8,8.5,20.7,12.3,7.1,97,93,86,31.48,31.13,4,1,9,0.00
2014-1-10,40.6,31.1,21.5,40.5,31.0,20.8,100,100,97,31.14,30.40,8,2,12,0.36
2014-1-11,41.2,36.1,31.3,41.2,35.8,30.0,100,99,94,30.51,30.17,9,2,15,0.07
2014-1-12,37.5,33.1,29.2,33.1,30.1,27.5,95,89,79,30.75,30.51,11,4,17,0.00
2014-1-13,44.4,39.8,33.2,38.3,35.0,30.6,95,83,75,30.50,30.33,7,2,10,0.00
2014-1-14,35.4,29.4,23.8,31.5,26.4,21.5,99,89,69,30.57,30.44,8,2,14,0.00
2014-1-15,25.3,21.3,14.9,23.3,19.3,11.9,98,92,83,30.88,30.54,13,2,17,0.06
2014-1-16,28.7,21.8,14.2,28.1,20.1,11.7,98,93,88,30.80,30.42,9,5,15,0.90
2014-1-17,28.1,20.9,13.4,26.6,18.6,10.7,96,91,85,30.80,30.46,6,1,12,0.00
2014-1-18,19.5,15.7,11.0,15.1,13.4,9.7,95,90,81,30.80,30.70,5,2,7,0.01
2014-1-19,30.2,21.7,10.2,28.6,19.5,9.1,98,91,80,30.72,30.34,7,2,17,0.00
2014-1-20,33.3,24.5,9.5,31.6,21.3,6.2,95,87,79,30.93,30.35,7,1,16,0.00
2014-1-21,11.1,6.8,-0.4,6.2,-0.4,-4.6,86,72,59,31.15,30.93,8,1,18,0.00
2014-1-22,11.0,7.9,4.7,8.5,4.1,-1.3,94,84,76,31.11,30.81,7,2,10,0.01
2014-1-23,15.0,9.6,3.4,8.8,6.2,1.4,95,86,71,31.41,30.90,4,0,8,0.02
2014-1-24,19.2,9.1,-4.9,18.0,5.0,-8.1,95,84,65,31.37,30.37,10,4,17,0.39
2014-1-25,25.6,17.1,7.9,25.4,15.2,6.2,99,92,75,30.67,30.18,10,2,20,0.11
2014-1-26,24.8,14.2,5.8,24.1,12.4,4.0,98,92,87,30.66,30.24,6,2,13,0.14
2014-1-27,19.5,5.9,-4.1,18.8,3.8,-6.3,97,91,83,31.25,30.37,7,1,15,0.08
2014-1-28,8.2,-1.5,-9.1,3.9,-4.3,-11.5,93,87,81,31.32,31.12,4,1,9,0.00
2014-1-29,17.5,8.5,0.0,12.9,4.3,-1.8,93,83,69,31.12,31.00,8,2,18,0.01
2014-1-30,29.0,20.4,10.2,28.2,15.0,5.8,97,80,66,30.99,30.59,13,5,21,0.00
2014-1-31,30.6,25.5,21.8,29.1,22.1,18.9,96,87,76,30.99,30.69,6,1,12,0.00